Ana Sayfa
METAR-TAF:

METAR-TAF

Havaalanları :

Ocean City Municipal Airport

Ocean City, Maryland, Amerika Birleşik Devletleri

Enlem: 38-18-38N, Boylam: 075-07-26W, yükseklik: 4 m

Güncel hava durumu gözlemi

Rapor saat 17:53 UTC de 17 dakika önce yapıldı.
Rüzgar güney/güneybatıdan 10 kt ve 17 kt'a kadar ani rüzgarlar
Sıcaklık 24°C
Nem 83%
Basınç 1014 hPa
Görüş mesafesi: 16.1 km
12000 ft yükseklikte az bulutlu

METAR: KOXB 051753Z AUTO 21010G17KT 10SM FEW120 24/21 A2995 RMK AO2 SLP143 T02440206 10283 20244 58002

Saat: 14:10 (18:10 UTC)


TAF: eksik

4.000'den fazla havaalanı için hava durumu gözlemleri ve tahminleri (METAR ve TAF raporları).

Kullanılabilir istasyonlar harita üzerinde sarı ve kırmızı noktalarla gösterilir.

İstasyonun adını görmek için fareyi noktanın üzerinde gezdirin.

Sonrasında hava gözlem ve tahminlerini görmek için tıklayın.

Haritayı değiştirmek için: yaklaştırmak için siyah artı işaretli yeşil düğmeye ve uzaklaştırmak için de eksi işaretli düğmeye hızla tıklayın; bitişik haritalar için yeşil okları kullanın.


METAR-TAF: